sensor_id;sensor_type;location;lat;lon;timestamp;temperature;humidity
4594;DHT22;2309;51.674;8.368;2022-12-15T06:50:48;-7.40;99.90
4594;DHT22;2309;51.674;8.368;2022-12-15T06:53:19;-7.40;99.90
4594;DHT22;2309;51.674;8.368;2022-12-15T06:55:46;-7.30;99.90
4594;DHT22;2309;51.674;8.368;2022-12-15T06:58:13;-7.10;99.90
4594;DHT22;2309;51.674;8.368;2022-12-15T07:00:41;-6.90;99.90
4594;DHT22;2309;51.674;8.368;2022-12-15T07:23:34;-6.90;99.90
4594;DHT22;2309;51.674;8.368;2022-12-15T07:28:36;-7.10;99.90
4594;DHT22;2309;51.674;8.368;2022-12-15T07:31:06;-7.00;99.90
4594;DHT22;2309;51.674;8.368;2022-12-15T07:33:34;-7.10;99.90
4594;DHT22;2309;51.674;8.368;2022-12-15T07:38:29;-7.30;99.90
4594;DHT22;2309;51.674;8.368;2022-12-15T07:50:44;-7.10;58.50
4594;DHT22;2309;51.674;8.368;2022-12-15T07:53:12;-7.10;44.10
4594;DHT22;2309;51.674;8.368;2022-12-15T07:55:39;-7.10;41.80
4594;DHT22;2309;51.674;8.368;2022-12-15T08:00:43;-7.00;52.50
4594;DHT22;2309;51.674;8.368;2022-12-15T08:18:09;-6.90;1.00
4594;DHT22;2309;51.674;8.368;2022-12-15T09:40:08;-3.30;1.00
4594;DHT22;2309;51.674;8.368;2022-12-15T10:41:41;-0.20;99.90
4594;DHT22;2309;51.674;8.368;2022-12-15T10:44:20;-0.10;99.90
4594;DHT22;2309;51.674;8.368;2022-12-15T10:51:48;0.40;99.90
4594;DHT22;2309;51.674;8.368;2022-12-15T11:04:22;3.10;1.00
4594;DHT22;2309;51.674;8.368;2022-12-15T11:06:36;3.10;1.00
4594;DHT22;2309;51.674;8.368;2022-12-15T11:11:33;3.50;1.00
4594;DHT22;2309;51.674;8.368;2022-12-15T11:14:04;3.90;1.00
4594;DHT22;2309;51.674;8.368;2022-12-15T11:16:32;4.30;1.00
4594;DHT22;2309;51.674;8.368;2022-12-15T11:19:01;4.60;1.00
4594;DHT22;2309;51.674;8.368;2022-12-15T11:21:31;4.90;1.00
4594;DHT22;2309;51.674;8.368;2022-12-15T11:23:58;5.40;1.00
4594;DHT22;2309;51.674;8.368;2022-12-15T11:26:34;5.50;1.00
4594;DHT22;2309;51.674;8.368;2022-12-15T11:28:57;5.40;99.90
4594;DHT22;2309;51.674;8.368;2022-12-15T11:31:36;5.90;99.90
4594;DHT22;2309;51.674;8.368;2022-12-15T11:33:50;6.30;99.90
4594;DHT22;2309;51.674;8.368;2022-12-15T11:36:21;6.90;99.90
4594;DHT22;2309;51.674;8.368;2022-12-15T11:38:49;6.30;99.90
4594;DHT22;2309;51.674;8.368;2022-12-15T11:41:26;6.60;99.90
4594;DHT22;2309;51.674;8.368;2022-12-15T11:43:54;6.80;99.90
4594;DHT22;2309;51.674;8.368;2022-12-15T11:46:17;7.20;99.90
4594;DHT22;2309;51.674;8.368;2022-12-15T11:48:40;7.60;99.90
4594;DHT22;2309;51.674;8.368;2022-12-15T11:51:10;8.10;99.90
4594;DHT22;2309;51.674;8.368;2022-12-15T11:56:07;8.00;99.90
4594;DHT22;2309;51.674;8.368;2022-12-15T11:58:35;8.60;99.90
4594;DHT22;2309;51.674;8.368;2022-12-15T12:01:13;8.50;99.90
4594;DHT22;2309;51.674;8.368;2022-12-15T12:03:34;8.50;99.90
4594;DHT22;2309;51.674;8.368;2022-12-15T12:06:01;9.00;99.90
4594;DHT22;2309;51.674;8.368;2022-12-15T12:08:52;9.40;99.90
4594;DHT22;2309;51.674;8.368;2022-12-15T12:21:30;9.90;99.90
4594;DHT22;2309;51.674;8.368;2022-12-15T12:58:37;11.10;99.90
4594;DHT22;2309;51.674;8.368;2022-12-15T13:00:40;10.70;99.90
4594;DHT22;2309;51.674;8.368;2022-12-15T13:03:32;10.70;99.90
4594;DHT22;2309;51.674;8.368;2022-12-15T13:05:39;10.40;99.90
4594;DHT22;2309;51.674;8.368;2022-12-15T13:10:44;10.00;99.90
4594;DHT22;2309;51.674;8.368;2022-12-15T13:15:48;10.30;99.90
4594;DHT22;2309;51.674;8.368;2022-12-15T13:18:23;9.90;99.90
4594;DHT22;2309;51.674;8.368;2022-12-15T13:20:47;10.00;99.90
4594;DHT22;2309;51.674;8.368;2022-12-15T13:26:00;9.40;99.90
4594;DHT22;2309;51.674;8.368;2022-12-15T13:28:39;8.80;99.90
4594;DHT22;2309;51.674;8.368;2022-12-15T13:31:23;8.40;99.90
4594;DHT22;2309;51.674;8.368;2022-12-15T13:33:18;8.80;99.90
4594;DHT22;2309;51.674;8.368;2022-12-15T13:35:44;8.60;99.90
4594;DHT22;2309;51.674;8.368;2022-12-15T13:38:15;8.70;99.90
4594;DHT22;2309;51.674;8.368;2022-12-15T13:43:09;8.50;99.90
4594;DHT22;2309;51.674;8.368;2022-12-15T13:45:40;8.30;99.90
4594;DHT22;2309;51.674;8.368;2022-12-15T13:48:10;8.60;99.90
4594;DHT22;2309;51.674;8.368;2022-12-15T13:50:38;9.10;99.90
4594;DHT22;2309;51.674;8.368;2022-12-15T13:53:12;9.20;99.90
4594;DHT22;2309;51.674;8.368;2022-12-15T13:55:37;8.40;99.90
4594;DHT22;2309;51.674;8.368;2022-12-15T13:58:30;7.10;99.90
4594;DHT22;2309;51.674;8.368;2022-12-15T14:00:46;6.90;99.90
4594;DHT22;2309;51.674;8.368;2022-12-15T14:03:13;6.90;99.90
4594;DHT22;2309;51.674;8.368;2022-12-15T14:05:38;6.90;99.90
4594;DHT22;2309;51.674;8.368;2022-12-15T14:08:14;6.40;99.90
4594;DHT22;2309;51.674;8.368;2022-12-15T14:13:08;7.20;99.90
4594;DHT22;2309;51.674;8.368;2022-12-15T14:15:40;7.20;99.90
4594;DHT22;2309;51.674;8.368;2022-12-15T14:18:02;6.60;99.90
4594;DHT22;2309;51.674;8.368;2022-12-15T14:20:36;6.00;99.90
4594;DHT22;2309;51.674;8.368;2022-12-15T14:23:28;5.50;99.90
4594;DHT22;2309;51.674;8.368;2022-12-15T14:28:24;4.60;99.90
4594;DHT22;2309;51.674;8.368;2022-12-15T14:34:10;4.20;99.90
4594;DHT22;2309;51.674;8.368;2022-12-15T14:36:32;4.00;99.90
4594;DHT22;2309;51.674;8.368;2022-12-15T14:39:04;3.70;99.90
4594;DHT22;2309;51.674;8.368;2022-12-15T14:41:33;3.40;99.90
4594;DHT22;2309;51.674;8.368;2022-12-15T14:43:59;3.10;99.90
4594;DHT22;2309;51.674;8.368;2022-12-15T14:46:26;2.70;99.90
4594;DHT22;2309;51.674;8.368;2022-12-15T14:48:59;2.40;99.90
4594;DHT22;2309;51.674;8.368;2022-12-15T14:53:51;1.80;99.90
4594;DHT22;2309;51.674;8.368;2022-12-15T14:59:18;1.50;99.90
4594;DHT22;2309;51.674;8.368;2022-12-15T15:01:21;1.30;1.00
4594;DHT22;2309;51.674;8.368;2022-12-15T15:06:19;0.60;1.00
4594;DHT22;2309;51.674;8.368;2022-12-15T15:11:24;0.20;1.00
4594;DHT22;2309;51.674;8.368;2022-12-15T15:13:43;0.00;1.00
4594;DHT22;2309;51.674;8.368;2022-12-15T15:16:13;-0.20;1.00
4594;DHT22;2309;51.674;8.368;2022-12-15T15:18:41;-0.50;1.00
4594;DHT22;2309;51.674;8.368;2022-12-15T15:21:14;-0.70;1.00
4594;DHT22;2309;51.674;8.368;2022-12-15T15:26:19;-0.90;1.00
4594;DHT22;2309;51.674;8.368;2022-12-15T15:28:46;-1.10;1.00
4594;DHT22;2309;51.674;8.368;2022-12-15T15:31:45;-1.20;1.00
4594;DHT22;2309;51.674;8.368;2022-12-15T15:33:42;-0.90;1.00
4594;DHT22;2309;51.674;8.368;2022-12-15T15:36:09;-1.40;1.00
4594;DHT22;2309;51.674;8.368;2022-12-15T15:38:37;-1.60;1.00
4594;DHT22;2309;51.674;8.368;2022-12-15T15:41:14;-1.70;14.70
4594;DHT22;2309;51.674;8.368;2022-12-15T15:43:35;-2.00;19.60
4594;DHT22;2309;51.674;8.368;2022-12-15T15:46:03;-2.20;98.90
4594;DHT22;2309;51.674;8.368;2022-12-15T15:48:32;-2.20;99.90
4594;DHT22;2309;51.674;8.368;2022-12-15T15:51:00;-2.30;99.90
4594;DHT22;2309;51.674;8.368;2022-12-15T15:53:28;-2.40;99.90
4594;DHT22;2309;51.674;8.368;2022-12-15T15:55:56;-2.60;99.90
4594;DHT22;2309;51.674;8.368;2022-12-15T15:58:25;-2.70;99.90
4594;DHT22;2309;51.674;8.368;2022-12-15T16:00:52;-2.70;99.90
4594;DHT22;2309;51.674;8.368;2022-12-15T16:03:19;-2.80;99.90
